Time;durP1;ratioP1;P1;durP2;ratioP2;P2;SDS_P1;SDS_P2;PMS_P1;PMS_P2;Temp;Humidity;BMP_temperature;BMP_pressure;BME280_temperature;BME280_humidity;BME280_pressure;Samples;Min_cycle;Max_cycle;Signal;HPM_P1;HPM_P2
2023/07/24 00:00:46;;;;;;;2.43;1.83;;;;;;;19.56;100.00;100385.22;5160811;28;20047;-74
2023/07/24 00:03:18;;;;;;;2.73;1.73;;;;;;;19.55;100.00;100384.41;5157920;28;20035;-75
2023/07/24 00:05:49;;;;;;;2.60;2.17;;;;;;;19.54;100.00;100390.72;5159966;28;20054;-74
2023/07/24 00:08:20;;;;;;;5.47;1.97;;;;;;;19.55;100.00;100384.41;5162338;28;20042;-73
2023/07/24 00:10:52;;;;;;;2.60;1.87;;;;;;;19.51;100.00;100377.88;5171880;28;20169;-75
2023/07/24 00:13:23;;;;;;;3.00;2.30;;;;;;;19.53;100.00;100381.13;5159800;28;20042;-74
2023/07/24 00:15:54;;;;;;;3.00;2.10;;;;;;;19.58;100.00;100385.84;5174753;28;20031;-75
2023/07/24 00:18:25;;;;;;;4.63;2.70;;;;;;;19.58;100.00;100377.84;5157458;28;20055;-74
2023/07/24 00:20:57;;;;;;;4.33;2.87;;;;;;;19.58;100.00;100372.53;5160045;28;20031;-77
2023/07/24 00:23:28;;;;;;;4.83;2.53;;;;;;;19.56;100.00;100372.75;5163623;28;20062;-75
2023/07/24 00:25:59;;;;;;;3.50;2.67;;;;;;;19.56;100.00;100366.63;5159524;28;20030;-74
2023/07/24 00:28:32;;;;;;;2.97;2.42;;;;;;;19.60;100.00;100359.88;5160901;28;20504;-76
2023/07/24 00:31:03;;;;;;;5.20;3.08;;;;;;;19.54;100.00;100358.84;5163013;28;20038;-76
2023/07/24 00:33:35;;;;;;;4.13;2.33;;;;;;;19.55;100.00;100351.72;5159691;28;20042;-75
2023/07/24 00:36:06;;;;;;;3.87;2.60;;;;;;;19.52;100.00;100344.94;5160657;28;20143;-75
2023/07/24 00:38:39;;;;;;;4.88;2.65;;;;;;;19.54;100.00;100347.41;5157928;28;20035;-75
2023/07/24 00:41:10;;;;;;;5.43;2.90;;;;;;;19.52;100.00;100338.81;5161122;28;20409;-75
2023/07/24 00:43:41;;;;;;;3.67;2.70;;;;;;;19.52;100.00;100347.63;5161355;28;20037;-75
2023/07/24 00:46:13;;;;;;;4.30;3.20;;;;;;;19.55;100.00;100341.91;5157126;28;20102;-75
2023/07/24 00:48:44;;;;;;;4.63;2.93;;;;;;;19.49;100.00;100332.06;5160604;28;20039;-74
2023/07/24 00:51:16;;;;;;;4.13;2.95;;;;;;;19.51;100.00;100327.38;5161421;28;20460;-74
2023/07/24 00:53:47;;;;;;;3.83;2.70;;;;;;;19.53;100.00;100330.66;5157736;28;20357;-75
2023/07/24 00:56:19;;;;;;;5.50;3.17;;;;;;;19.51;100.00;100314.09;5162261;28;20500;-75
2023/07/24 00:58:51;;;;;;;4.00;3.30;;;;;;;19.57;100.00;100325.75;5157195;28;20447;-76
2023/07/24 01:01:23;;;;;;;3.67;3.20;;;;;;;19.53;100.00;100325.31;5160837;28;20488;-75
2023/07/24 01:03:57;;;;;;;4.17;3.20;;;;;;;19.56;100.00;100329.44;5156142;28;20035;-75
2023/07/24 01:06:29;;;;;;;5.15;3.40;;;;;;;19.47;100.00;100314.69;5164628;28;20042;-75
2023/07/24 01:09:00;;;;;;;6.03;3.07;;;;;;;19.42;100.00;100299.34;5161986;28;20482;-75
2023/07/24 01:11:46;;;;;;;7.88;3.60;;;;;;;19.61;100.00;100297.75;5171884;28;20030;-75
2023/07/24 01:14:24;;;;;;;5.65;4.05;;;;;;;19.55;100.00;100306.53;5162418;28;20034;-75
2023/07/24 01:16:58;;;;;;;5.43;4.05;;;;;;;19.50;100.00;100303.66;5157239;28;20071;-73
2023/07/24 01:19:48;;;;;;;4.72;3.85;;;;;;;19.58;100.00;100298.16;5160525;28;20018;-73
2023/07/24 01:22:29;;;;;;;6.95;4.18;;;;;;;19.49;100.00;100304.69;5160552;28;20038;-74
2023/07/24 01:25:26;;;;;;;6.22;4.00;;;;;;;19.63;100.00;100303.72;5165128;28;20477;-75
2023/07/24 01:27:58;;;;;;;6.38;4.50;;;;;;;19.42;100.00;100307.31;5170921;28;20145;-75
2023/07/24 01:30:29;;;;;;;5.75;4.30;;;;;;;19.45;100.00;100298.94;5172538;28;20054;-75
2023/07/24 01:33:01;;;;;;;6.70;4.72;;;;;;;19.43;100.00;100296.50;5175642;28;20105;-76
2023/07/24 01:35:33;;;;;;;7.72;4.07;;;;;;;19.39;100.00;100292.59;5158545;28;20055;-73
2023/07/24 01:38:04;;;;;;;5.57;4.10;;;;;;;19.35;100.00;100290.53;5162573;28;20041;-73
2023/07/24 01:40:36;;;;;;;6.23;3.67;;;;;;;19.37;100.00;100293.84;5157964;28;20039;-75
2023/07/24 01:43:08;;;;;;;4.07;3.47;;;;;;;19.38;100.00;100285.66;5152403;28;20039;-76
2023/07/24 01:45:39;;;;;;;5.20;3.92;;;;;;;19.40;100.00;100285.47;5158852;28;20062;-76
2023/07/24 01:48:10;;;;;;;5.50;4.30;;;;;;;19.37;100.00;100276.06;5157472;28;20049;-74
2023/07/24 01:50:42;;;;;;;4.70;3.93;;;;;;;19.44;100.00;100279.53;5157093;28;20026;-76
2023/07/24 01:53:13;;;;;;;4.40;3.87;;;;;;;19.46;100.00;100274.00;5159496;28;20039;-75
2023/07/24 01:55:44;;;;;;;5.00;3.50;;;;;;;19.45;100.00;100273.19;5164319;28;20049;-75
2023/07/24 01:58:15;;;;;;;5.15;4.20;;;;;;;19.43;100.00;100261.97;5160960;28;20033;-76
2023/07/24 02:00:47;;;;;;;4.53;3.78;;;;;;;19.43;100.00;100247.84;5162267;28;20042;-75
2023/07/24 02:03:18;;;;;;;5.70;3.63;;;;;;;19.45;100.00;100257.25;5162589;28;20041;-75
2023/07/24 02:05:51;;;;;;;4.43;3.30;;;;;;;19.46;100.00;100250.09;5158661;28;20102;-74
2023/07/24 02:08:22;;;;;;;4.43;3.25;;;;;;;19.46;100.00;100250.09;5160568;28;20030;-76
2023/07/24 02:10:53;;;;;;;4.93;3.33;;;;;;;19.49;100.00;100240.91;5172320;28;20035;-75
2023/07/24 02:13:24;;;;;;;4.50;3.13;;;;;;;19.51;100.00;100237.06;5162064;28;20035;-77
2023/07/24 02:15:56;;;;;;;4.90;3.43;;;;;;;19.52;100.00;100238.69;5157660;28;20027;-74
2023/07/24 02:18:27;;;;;;;5.53;3.55;;;;;;;19.50;100.00;100231.91;5161623;28;20061;-75
2023/07/24 02:20:58;;;;;;;4.10;3.37;;;;;;;19.50;100.00;100237.22;5158644;28;20489;-76
2023/07/24 02:23:30;;;;;;;4.50;3.27;;;;;;;19.44;100.00;100226.41;5156029;28;20050;-74
2023/07/24 02:26:01;;;;;;;4.55;3.65;;;;;;;19.53;100.00;100236.84;5159579;28;20034;-77
2023/07/24 02:28:32;;;;;;;4.47;3.63;;;;;;;19.59;100.00;100247.47;5158395;28;20031;-74
2023/07/24 02:31:03;;;;;;;5.80;3.90;;;;;;;19.60;100.00;100238.47;5146427;28;20098;-74
2023/07/24 02:33:35;;;;;;;5.13;3.63;;;;;;;19.60;100.00;100243.78;5143204;28;20032;-74
2023/07/24 02:36:06;;;;;;;4.70;4.03;;;;;;;19.59;100.00;100234.19;5155608;28;20026;-75
2023/07/24 02:38:37;;;;;;;5.13;4.07;;;;;;;19.63;100.00;100248.72;5158139;28;20024;-75
2023/07/24 02:41:09;;;;;;;5.13;4.20;;;;;;;19.57;100.00;100256.66;5158848;28;20388;-74
2023/07/24 02:43:40;;;;;;;5.75;3.88;;;;;;;19.59;100.00;100259.94;5160251;28;20058;-76
2023/07/24 02:46:12;;;;;;;6.65;4.25;;;;;;;19.58;100.00;100250.31;5157873;28;20382;-76
2023/07/24 02:48:43;;;;;;;6.17;4.40;;;;;;;19.57;100.00;100241.53;5160233;28;20027;-76
2023/07/24 02:51:14;;;;;;;5.33;4.40;;;;;;;19.57;100.00;100230.09;5156562;28;20323;-76
2023/07/24 02:53:45;;;;;;;6.33;4.60;;;;;;;19.55;100.00;100224.19;5155581;28;20439;-77
2023/07/24 02:56:17;;;;;;;4.73;4.13;;;;;;;19.50;100.00;100230.06;5157706;28;20820;-76
2023/07/24 02:58:48;;;;;;;5.47;3.70;;;;;;;19.45;100.00;100227.22;5156842;28;20404;-75
2023/07/24 03:01:20;;;;;;;6.17;3.40;;;;;;;19.44;100.00;100237.03;5154366;28;20038;-74
2023/07/24 03:03:51;;;;;;;3.93;3.27;;;;;;;19.34;100.00;100228.63;5162327;28;20104;-74
2023/07/24 03:06:22;;;;;;;4.00;3.43;;;;;;;19.35;100.00;100221.47;5157075;28;20616;-76
2023/07/24 03:08:54;;;;;;;5.37;3.30;;;;;;;19.29;100.00;100201.88;5177132;28;20086;-74
2023/07/24 03:11:25;;;;;;;4.00;3.03;;;;;;;19.28;100.00;100210.03;5158795;28;20530;-76
2023/07/24 03:13:56;;;;;;;5.23;3.03;;;;;;;19.24;100.00;100209.63;5158878;28;21317;-75
2023/07/24 03:16:27;;;;;;;5.43;2.47;;;;;;;19.19;100.00;100218.19;5156557;28;20030;-75
2023/07/24 03:18:59;;;;;;;6.43;3.27;;;;;;;19.16;100.00;100229.22;5157233;28;20019;-75
2023/07/24 03:21:30;;;;;;;4.10;2.97;;;;;;;19.12;100.00;100235.94;5158653;28;20628;-75
2023/07/24 03:24:01;;;;;;;3.13;2.47;;;;;;;19.00;100.00;100226.13;5153406;28;20106;-76
2023/07/24 03:26:33;;;;;;;3.30;2.42;;;;;;;19.04;100.00;100228.16;5159584;28;20033;-75
2023/07/24 03:29:05;;;;;;;2.90;2.47;;;;;;;18.97;100.00;100227.34;5161213;28;20151;-75
2023/07/24 03:31:36;;;;;;;3.47;2.70;;;;;;;18.91;100.00;100214.88;5159544;28;20456;-74
2023/07/24 03:34:07;;;;;;;3.50;2.63;;;;;;;18.84;100.00;100219.34;5160788;28;20062;-75
2023/07/24 03:36:41;;;;;;;3.33;2.40;;;;;;;18.82;100.00;100202.78;5159605;28;20105;-74
2023/07/24 03:39:12;;;;;;;3.20;2.78;;;;;;;18.79;100.00;100201.38;5156920;28;20193;-74
2023/07/24 03:41:44;;;;;;;3.80;2.65;;;;;;;18.85;100.00;100205.84;5155065;28;20023;-76
2023/07/24 03:44:15;;;;;;;2.85;2.22;;;;;;;18.87;100.00;100211.81;5161647;28;20026;-77
2023/07/24 03:46:46;;;;;;;3.75;2.50;;;;;;;18.88;100.00;100204.66;5156887;28;20118;-75
2023/07/24 03:49:17;;;;;;;4.68;2.42;;;;;;;18.90;100.00;100205.25;5158157;28;20035;-75
2023/07/24 03:51:49;;;;;;;3.67;2.73;;;;;;;18.80;100.00;100194.22;5155671;28;20043;-75
2023/07/24 03:54:20;;;;;;;4.20;2.77;;;;;;;18.86;100.00;100209.31;5156999;28;20513;-76
2023/07/24 03:56:51;;;;;;;4.20;2.50;;;;;;;18.83;100.00;100197.28;5157543;28;20031;-78
2023/07/24 03:59:23;;;;;;;4.50;2.88;;;;;;;18.88;100.00;100204.66;5162015;28;20042;-75
2023/07/24 04:01:54;;;;;;;3.47;2.40;;;;;;;18.83;100.00;100210.56;5170039;28;20045;-75
2023/07/24 04:04:25;;;;;;;3.30;2.60;;;;;;;18.88;100.00;100212.63;5160429;28;20093;-75
2023/07/24 04:06:56;;;;;;;4.45;3.08;;;;;;;18.86;100.00;100222.59;5160418;28;20049;-75
2023/07/24 04:09:29;;;;;;;4.50;3.10;;;;;;;18.87;100.00;100234.88;5156232;28;20019;-74
2023/07/24 04:12:00;;;;;;;4.75;3.20;;;;;;;18.84;100.00;100229.97;5152874;28;20046;-75
2023/07/24 04:14:32;;;;;;;3.87;3.10;;;;;;;18.80;100.00;100226.06;5165373;28;20023;-76
2023/07/24 04:17:03;;;;;;;3.42;3.08;;;;;;;18.82;100.00;100227.47;5160642;28;20035;-76
2023/07/24 04:19:35;;;;;;;6.03;3.03;;;;;;;18.82;100.00;100230.13;5165806;28;20023;-77
2023/07/24 04:22:06;;;;;;;4.63;2.92;;;;;;;18.81;100.00;100225.03;5158252;28;20499;-75
2023/07/24 04:24:37;;;;;;;5.03;3.00;;;;;;;18.77;100.00;100221.16;5159946;28;20090;-77
2023/07/24 04:27:08;;;;;;;3.75;2.95;;;;;;;18.74;100.00;100227.66;5159924;28;20031;-74
2023/07/24 04:29:40;;;;;;;4.53;2.83;;;;;;;18.77;100.00;100219.31;5155216;28;20046;-76
2023/07/24 04:32:11;;;;;;;4.50;2.93;;;;;;;18.78;100.00;100228.09;5156561;28;20038;-74
2023/07/24 04:34:42;;;;;;;6.13;3.28;;;;;;;18.77;100.00;100237.06;5173713;28;20104;-75
2023/07/24 04:37:13;;;;;;;4.50;3.03;;;;;;;18.70;100.00;100235.19;5158071;28;20023;-75
2023/07/24 04:39:45;;;;;;;3.67;3.07;;;;;;;18.70;100.00;100234.34;5159880;28;20224;-74
2023/07/24 04:42:16;;;;;;;4.40;2.67;;;;;;;18.64;100.00;100235.97;5176878;28;20031;-76
2023/07/24 04:44:47;;;;;;;3.47;2.70;;;;;;;18.60;100.00;100229.44;5174455;28;20145;-74
2023/07/24 04:47:19;;;;;;;3.63;2.92;;;;;;;18.61;100.00;100241.69;5162935;28;20043;-75
2023/07/24 04:49:50;;;;;;;3.58;3.03;;;;;;;18.57;100.00;100235.13;5162556;28;20059;-75
2023/07/24 04:52:21;;;;;;;3.33;2.83;;;;;;;18.55;100.00;100244.28;5161780;28;20678;-74
2023/07/24 04:54:52;;;;;;;4.40;3.10;;;;;;;18.51;100.00;100241.22;5163052;28;20035;-74
2023/07/24 04:57:24;;;;;;;3.83;3.20;;;;;;;18.47;100.00;100234.66;5160305;28;20444;-74
2023/07/24 04:59:55;;;;;;;4.50;3.80;;;;;;;18.43;100.00;100228.13;5163928;28;20388;-75
2023/07/24 05:02:26;;;;;;;3.58;2.95;;;;;;;18.42;100.00;100227.28;5172122;28;20393;-75
2023/07/24 05:04:57;;;;;;;5.63;3.60;;;;;;;18.43;100.00;100205.06;5161463;28;20047;-75
2023/07/24 05:07:29;;;;;;;3.90;3.30;;;;;;;18.47;100.00;100226.69;5160078;28;20384;-75
2023/07/24 05:10:00;;;;;;;4.32;3.63;;;;;;;18.50;100.00;100238.75;5158439;28;20428;-75
2023/07/24 05:12:31;;;;;;;4.57;3.67;;;;;;;18.43;100.00;100228.94;5158912;28;20089;-76
2023/07/24 05:15:03;;;;;;;3.53;3.22;;;;;;;18.42;100.00;100234.44;5162261;28;20070;-74
2023/07/24 05:17:34;;;;;;;4.47;3.83;;;;;;;18.40;100.00;100239.94;5161248;28;20081;-75
2023/07/24 05:20:06;;;;;;;4.30;3.90;;;;;;;18.36;100.00;100243.16;5158213;28;20031;-75
2023/07/24 05:22:37;;;;;;;4.03;3.63;;;;;;;18.37;100.00;100244.81;5157387;28;20125;-77
2023/07/24 05:25:09;;;;;;;3.93;3.53;;;;;;;18.38;100.00;100243.81;5156005;28;20041;-75
2023/07/24 05:27:40;;;;;;;4.60;3.75;;;;;;;18.45;100.00;100253.44;5158160;28;20039;-77
2023/07/24 05:30:11;;;;;;;4.40;4.00;;;;;;;18.42;100.00;100245.88;5157522;28;20613;-76
2023/07/24 05:32:43;;;;;;;5.15;3.85;;;;;;;18.45;100.00;100236.72;5155502;28;20559;-77
2023/07/24 05:35:14;;;;;;;4.65;4.18;;;;;;;18.50;100.00;100250.19;5160022;28;20030;-75
2023/07/24 05:37:45;;;;;;;6.13;4.47;;;;;;;18.56;100.00;100248.56;5156510;28;20022;-75
2023/07/24 05:40:17;;;;;;;5.00;4.50;;;;;;;18.61;100.00;100251.47;5157863;28;20031;-74
2023/07/24 05:42:48;;;;;;;5.40;4.70;;;;;;;18.55;100.00;100242.44;5157485;28;20117;-74
2023/07/24 05:45:19;;;;;;;5.18;4.43;;;;;;;18.59;100.00;100245.53;5162319;28;20062;-76
2023/07/24 05:47:51;;;;;;;5.43;4.88;;;;;;;18.60;100.00;100253.31;5157598;28;20094;-74
2023/07/24 05:50:22;;;;;;;4.93;4.50;;;;;;;18.64;100.00;100259.03;5157757;28;20103;-74
2023/07/24 05:52:53;;;;;;;5.85;5.03;;;;;;;18.63;100.00;100255.53;5159757;28;20031;-75
2023/07/24 05:55:24;;;;;;;5.35;4.85;;;;;;;18.61;100.00;100262.91;5159829;28;20061;-75
2023/07/24 05:57:56;;;;;;;5.20;4.60;;;;;;;18.60;100.00;100269.22;5155744;28;20027;-75
2023/07/24 06:00:27;;;;;;;5.07;4.57;;;;;;;18.65;100.00;100269.44;5160586;28;20050;-76
2023/07/24 06:02:59;;;;;;;5.73;4.87;;;;;;;18.75;100.00;100268.28;5162427;28;20031;-74
2023/07/24 06:05:30;;;;;;;5.13;4.57;;;;;;;18.81;100.00;100262.19;5157047;28;20038;-75
2023/07/24 06:08:01;;;;;;;5.68;5.15;;;;;;;18.87;100.00;100264.06;5158858;28;20026;-75
2023/07/24 06:10:32;;;;;;;6.20;5.03;;;;;;;18.87;100.00;100270.19;5158586;28;20136;-74
2023/07/24 06:13:04;;;;;;;5.13;4.63;;;;;;;18.86;100.00;100267.72;5172730;28;20031;-75
2023/07/24 06:15:35;;;;;;;5.40;4.90;;;;;;;19.00;100.00;100282.69;5158271;28;20031;-74
2023/07/24 06:18:06;;;;;;;5.28;4.70;;;;;;;19.04;100.00;100277.78;5173983;28;20542;-75
2023/07/24 06:20:37;;;;;;;4.60;4.20;;;;;;;19.12;100.00;100286.41;5155355;28;20492;-75
2023/07/24 06:23:09;;;;;;;6.00;4.87;;;;;;;19.24;100.00;100280.50;5156543;28;20564;-75
2023/07/24 06:25:40;;;;;;;5.00;4.50;;;;;;;19.31;100.00;100270.72;5159571;28;20095;-76
2023/07/24 06:28:11;;;;;;;4.87;4.40;;;;;;;19.33;100.00;100266.03;5157051;28;20031;-74
2023/07/24 06:30:43;;;;;;;4.27;3.87;;;;;;;19.38;100.00;100266.25;5156212;28;20031;-75
2023/07/24 06:33:14;;;;;;;5.27;4.57;;;;;;;19.51;100.00;100274.25;5159059;28;20039;-75
2023/07/24 06:35:45;;;;;;;4.60;4.20;;;;;;;19.48;100.00;100279.97;5152473;28;20097;-77
2023/07/24 06:38:16;;;;;;;4.80;4.40;;;;;;;19.44;100.00;100271.56;5152658;28;20374;-76
2023/07/24 06:40:48;;;;;;;4.00;3.70;;;;;;;19.29;100.00;100270.94;5157761;28;20069;-76
2023/07/24 06:43:19;;;;;;;4.63;4.23;;;;;;;19.45;100.00;100280.34;5151280;28;20031;-75
2023/07/24 06:45:51;;;;;;;4.93;4.37;;;;;;;19.36;100.00;100279.75;5156525;28;20043;-76
2023/07/24 06:48:23;;;;;;;4.50;3.95;;;;;;;19.43;100.00;100272.59;5149923;28;20042;-75
2023/07/24 06:50:54;;;;;;;4.38;3.92;;;;;;;19.45;100.00;100277.69;5154107;28;20114;-75
2023/07/24 06:53:26;;;;;;;4.47;3.87;;;;;;;19.35;100.00;100286.03;5153088;28;21799;-77
2023/07/24 06:55:57;;;;;;;4.53;3.88;;;;;;;19.36;100.00;100285.03;5155580;28;20035;-74
2023/07/24 06:58:28;;;;;;;4.40;3.67;;;;;;;19.31;100.00;100270.72;5156261;28;20027;-73
2023/07/24 07:00:59;;;;;;;4.70;3.90;;;;;;;19.28;100.00;100276.44;5151732;28;20074;-75
2023/07/24 07:03:34;;;;;;;3.67;3.00;;;;;;;19.14;100.00;100260.47;5154555;28;20031;-77
2023/07/24 07:06:06;;;;;;;3.97;3.50;;;;;;;19.09;100.00;100278.00;5156817;28;20329;-75
2023/07/24 07:08:37;;;;;;;4.22;3.70;;;;;;;19.13;100.00;100274.78;5170222;28;20027;-73
2023/07/24 07:11:09;;;;;;;4.07;3.67;;;;;;;19.18;100.00;100280.28;5154831;28;20035;-73
2023/07/24 07:13:40;;;;;;;4.83;3.83;;;;;;;19.14;100.00;100279.06;5152781;28;20542;-76
2023/07/24 07:16:11;;;;;;;4.43;3.97;;;;;;;19.14;100.00;100275.59;5153450;28;20051;-77
2023/07/24 07:18:42;;;;;;;5.27;3.57;;;;;;;19.20;100.00;100274.78;5169593;23;20435;-68
2023/07/24 07:21:14;;;;;;;4.20;3.78;;;;;;;19.15;100.00;100275.38;5175751;28;20475;-67
2023/07/24 07:23:45;;;;;;;3.75;3.35;;;;;;;19.13;100.00;100269.47;5179827;28;20495;-69
2023/07/24 07:26:17;;;;;;;3.10;2.80;;;;;;;19.11;100.00;100274.16;5190631;28;20510;-67
2023/07/24 07:28:48;;;;;;;3.53;2.83;;;;;;;19.04;100.00;100256.56;5177405;28;20027;-67
2023/07/24 07:31:19;;;;;;;3.03;2.63;;;;;;;19.14;100.00;100270.28;5178685;28;20832;-68
2023/07/24 07:33:51;;;;;;;3.33;2.50;;;;;;;19.18;100.00;100269.66;5178266;28;20069;-68
2023/07/24 07:36:22;;;;;;;3.03;2.63;;;;;;;19.38;100.00;100283.00;5178798;28;20043;-68
2023/07/24 07:38:54;;;;;;;2.92;2.45;;;;;;;19.50;100.00;100274.44;5180576;28;20051;-67
2023/07/24 07:41:25;;;;;;;3.00;2.65;;;;;;;19.51;100.00;100274.25;5180840;28;20037;-67
2023/07/24 07:43:57;;;;;;;3.75;3.13;;;;;;;19.51;100.00;100268.94;5179973;28;20046;-67
2023/07/24 07:46:28;;;;;;;4.43;2.80;;;;;;;19.55;100.00;100267.50;5179902;28;20637;-68
2023/07/24 07:48:59;;;;;;;2.93;2.60;;;;;;;19.65;100.00;100267.94;5178352;28;20034;-68
2023/07/24 07:51:31;;;;;;;3.90;2.83;;;;;;;19.77;100.00;100262.81;5181033;28;20700;-68
2023/07/24 07:54:02;;;;;;;4.07;3.10;;;;;;;19.90;100.00;100265.50;5180767;28;20038;-67
2023/07/24 07:56:35;;;;;;;3.40;2.67;;;;;;;19.95;100.00;100274.69;5171693;28;20034;-67
2023/07/24 07:59:06;;;;;;;3.83;3.50;;;;;;;20.03;100.00;100262.00;5180735;28;20133;-67
2023/07/24 08:01:39;;;;;;;4.70;3.67;;;;;;;20.13;100.00;100257.09;5179240;28;20030;-68
2023/07/24 08:04:10;;;;;;;3.95;3.33;;;;;;;20.26;100.00;100272.19;5180172;28;20038;-68
2023/07/24 08:06:41;;;;;;;4.10;3.50;;;;;;;20.25;100.00;100275.06;5181230;28;20491;-68
2023/07/24 08:09:13;;;;;;;4.43;3.43;;;;;;;20.16;100.00;100264.66;5179758;28;20030;-68
2023/07/24 08:11:44;;;;;;;4.10;3.70;;;;;;;20.13;100.00;100267.72;5173103;28;20062;-68
2023/07/24 08:14:15;;;;;;;4.40;3.47;;;;;;;20.09;100.00;100271.81;5184845;28;20033;-68
2023/07/24 08:16:50;;;;;;;4.67;3.53;;;;;;;20.18;100.00;100272.41;5175044;28;20042;-68
2023/07/24 08:19:21;;;;;;;4.38;3.97;;;;;;;19.98;100.00;100261.00;5184323;28;20523;-68
2023/07/24 08:21:53;;;;;;;6.03;4.03;;;;;;;20.13;100.00;100262.41;5180689;28;20042;-68
2023/07/24 08:24:24;;;;;;;5.60;4.30;;;;;;;20.21;100.00;100258.69;5184331;28;20026;-68
2023/07/24 08:26:55;;;;;;;5.27;4.77;;;;;;;20.33;100.00;100256.22;5186626;28;20366;-68
2023/07/24 08:29:26;;;;;;;5.03;4.53;;;;;;;20.25;100.00;100249.28;5181730;28;20103;-68
2023/07/24 08:31:58;;;;;;;5.17;4.67;;;;;;;20.37;100.00;100263.56;5182144;28;20035;-68
2023/07/24 08:34:29;;;;;;;6.23;5.20;;;;;;;20.40;100.00;100262.34;5180986;28;20093;-68
2023/07/24 08:37:00;;;;;;;5.97;5.10;;;;;;;20.44;100.00;100266.22;5184697;28;20252;-69
2023/07/24 08:39:32;;;;;;;4.77;4.20;;;;;;;20.42;100.00;100266.44;5185261;28;20487;-69
2023/07/24 08:42:12;;;;;;;5.30;4.80;;;;;;;20.65;100.00;100255.34;5185286;28;20026;-69
2023/07/24 08:44:44;;;;;;;6.05;5.22;;;;;;;20.42;100.00;100266.44;5182267;28;20031;-69
2023/07/24 08:47:16;;;;;;;8.07;5.23;;;;;;;20.52;100.00;100270.53;5184379;28;20395;-69
2023/07/24 08:49:48;;;;;;;5.90;5.07;;;;;;;20.55;100.00;100270.94;5183097;28;20022;-68
2023/07/24 08:52:20;;;;;;;7.28;5.47;;;;;;;20.51;100.00;100263.59;5184197;28;20662;-69
2023/07/24 08:54:52;;;;;;;6.57;5.13;;;;;;;20.49;100.00;100260.28;5185253;28;20034;-69
2023/07/24 08:57:23;;;;;;;5.43;4.93;;;;;;;20.42;100.00;100247.81;5181452;28;20182;-68
2023/07/24 08:59:55;;;;;;;5.60;5.10;;;;;;;20.50;100.00;100256.63;5182664;28;20109;-69
2023/07/24 09:02:26;;;;;;;5.83;5.23;;;;;;;20.29;100.00;100249.69;5181675;28;20038;-69
2023/07/24 09:04:57;;;;;;;5.30;4.23;;;;;;;20.32;100.00;100250.09;5184631;28;20027;-69
2023/07/24 09:07:30;;;;;;;6.67;4.97;;;;;;;20.38;100.00;100245.75;5180902;28;20061;-69
2023/07/24 09:10:01;;;;;;;5.53;4.43;;;;;;;20.50;100.00;100222.03;5183413;28;20050;-67
2023/07/24 09:12:32;;;;;;;5.77;5.13;;;;;;;20.70;100.00;100230.75;5183073;28;20073;-68
2023/07/24 09:15:05;;;;;;;5.57;4.63;;;;;;;20.75;100.00;100225.59;5183718;28;20022;-67
2023/07/24 09:17:47;;;;;;;5.10;4.60;;;;;;;21.07;100.00;100223.81;5182319;28;20034;-68
2023/07/24 09:20:20;;;;;;;5.10;4.47;;;;;;;21.11;100.00;100222.34;5179945;28;20089;-68
2023/07/24 09:22:52;;;;;;;3.58;3.28;;;;;;;21.21;100.00;100221.84;5182284;28;20038;-69
2023/07/24 09:25:31;;;;;;;3.85;3.00;;;;;;;21.36;100.00;100209.06;5183495;28;20494;-69
2023/07/24 09:28:28;;;;;;;3.80;3.22;;;;;;;21.45;100.00;100206.16;5184741;28;20391;-69
2023/07/24 09:31:00;;;;;;;3.53;2.90;;;;;;;20.86;100.00;100213.47;5178941;28;20042;-69
2023/07/24 09:33:40;;;;;;;5.03;3.10;;;;;;;21.03;100.00;100203.16;5184771;28;20037;-69
2023/07/24 09:36:12;;;;;;;4.18;2.63;;;;;;;20.87;100.00;100201.78;5184048;28;20391;-69
2023/07/24 09:38:43;;;;;;;4.33;2.87;;;;;;;20.83;100.00;100196.06;5184138;28;20018;-68
2023/07/24 09:41:16;;;;;;;3.23;2.30;;;;;;;20.99;100.00;100176.13;5184699;28;20084;-69
2023/07/24 09:43:47;;;;;;;3.20;2.60;;;;;;;21.02;100.00;100183.66;5183524;28;20042;-69
2023/07/24 09:46:19;;;;;;;2.90;2.53;;;;;;;21.07;100.00;100183.84;5184531;28;20399;-68
2023/07/24 09:48:50;;;;;;;3.53;2.90;;;;;;;21.08;100.00;100182.81;5185176;28;20023;-68
2023/07/24 09:51:22;;;;;;;3.63;2.63;;;;;;;21.12;100.00;100175.22;5182278;28;20041;-68
2023/07/24 09:54:13;;;;;;;3.27;2.77;;;;;;;21.02;100.00;100166.88;5185395;28;20034;-69
2023/07/24 09:56:45;;;;;;;3.17;2.88;;;;;;;20.70;100.00;100168.72;5185140;28;20654;-67
2023/07/24 09:59:17;;;;;;;3.85;3.00;;;;;;;20.81;100.00;100168.03;5183963;28;20023;-68
2023/07/24 10:01:48;;;;;;;5.57;3.73;;;;;;;20.78;100.00;100157.81;5184184;28;20046;-68
2023/07/24 10:04:20;;;;;;;3.43;3.10;;;;;;;20.69;100.00;100165.25;5185770;28;20042;-68
2023/07/24 10:06:52;;;;;;;3.73;3.30;;;;;;;20.67;100.00;100171.81;5185534;28;20459;-68
2023/07/24 10:09:24;;;;;;;3.47;3.17;;;;;;;20.69;100.00;100173.22;5182308;28;20045;-68
2023/07/24 10:11:57;;;;;;;3.10;2.77;;;;;;;20.62;100.00;100186.56;5183530;28;20046;-68
2023/07/24 10:14:29;;;;;;;3.53;3.03;;;;;;;20.57;100.00;100193.53;5158909;28;20600;-68
2023/07/24 10:17:00;;;;;;;4.32;3.00;;;;;;;20.56;100.00;100187.41;5183657;28;20030;-69
2023/07/24 10:19:39;;;;;;;3.20;2.87;;;;;;;20.62;100.00;100193.72;5182977;28;20037;-69
2023/07/24 10:22:20;;;;;;;4.13;3.05;;;;;;;20.50;100.00;100192.78;5184348;28;20035;-69
2023/07/24 10:24:55;;;;;;;3.25;2.95;;;;;;;20.42;100.00;100207.09;5174398;28;20041;-69
2023/07/24 10:27:28;;;;;;;4.03;3.30;;;;;;;20.24;100.00;100205.09;5182002;28;20479;-68
2023/07/24 10:30:03;;;;;;;;;;;;;;;21.07;100.00;100199.84;5183767;28;20107;-67
2023/07/24 10:32:45;;;;;;;3.72;3.22;;;;;;;20.46;100.00;100203.00;5184407;28;20019;-68
2023/07/24 10:35:17;;;;;;;4.00;3.60;;;;;;;20.26;100.00;100202.22;5180723;28;20034;-68
2023/07/24 10:38:00;;;;;;;3.60;3.22;;;;;;;20.57;100.00;100194.38;5177606;28;20065;-68
2023/07/24 10:40:33;;;;;;;4.00;3.63;;;;;;;20.52;100.00;100196.03;5181451;28;20026;-68
2023/07/24 10:43:05;;;;;;;;;;;;;;;21.31;100.00;100192.09;5182233;28;20030;-68
2023/07/24 10:45:41;;;;;;;;;;;;;;;21.44;100.00;100200.03;5181427;28;19921;-68
2023/07/24 10:48:12;;;;;;;;;;;;;;;21.58;100.00;100216.72;5183953;28;19974;-68
2023/07/24 10:50:44;;;;;;;;;;;;;;;21.69;100.00;100221.34;5183714;28;19921;-68
2023/07/24 10:53:16;;;;;;;;;;;;;;;21.78;100.00;100224.53;5182985;28;19913;-68
2023/07/24 10:55:47;;;;;;;;;;;;;;;21.83;100.00;100211.38;5181697;28;19922;-68
2023/07/24 10:58:18;;;;;;;;;;;;;;;21.92;100.00;100209.25;5179025;28;20346;-68
2023/07/24 11:00:50;;;;;;;;;;;;;;;21.97;100.00;100210.22;5178039;28;19928;-68
2023/07/24 11:03:21;;;;;;;;;;;;;;;22.00;100.00;100219.63;5182440;28;20266;-68
2023/07/24 11:05:53;;;;;;;;;;;;;;;22.06;100.00;100219.56;5179935;28;20279;-68
2023/07/24 11:08:24;;;;;;;;;;;;;;;22.11;100.00;100217.03;5178924;28;19925;-68
2023/07/24 11:10:57;;;;;;;;;;;;;;;22.19;100.00;100212.47;5179766;28;19922;-68
2023/07/24 11:13:28;;;;;;;;;;;;;;;22.29;100.00;100220.78;5181435;28;19922;-68
2023/07/24 11:16:07;;;;;;;;;;;;;;;22.29;100.00;100223.47;5178989;28;19917;-68
2023/07/24 11:18:48;;;;;;;;;;;;;;;22.27;100.00;100213.00;5175865;28;19922;-68
2023/07/24 11:21:19;;;;;;;;;;;;;;;22.29;100.00;100216.28;5174852;28;19959;-69
2023/07/24 11:23:52;;;;;;;;;;;;;;;22.35;100.00;100206.56;5182775;28;19957;-69
2023/07/24 11:26:25;;;;;;;;;;;;;;;22.39;100.00;100213.09;5179606;28;20271;-69
2023/07/24 11:28:56;;;;;;;;;;;;;;;22.44;100.00;100218.56;5182111;28;21381;-69
2023/07/24 11:31:36;;;;;;;;;;;;;;;22.47;100.00;100230.66;5177058;28;20014;-69
2023/07/24 11:34:07;;;;;;;;;;;;;;;22.45;100.00;100225.53;5149926;28;20715;-68
2023/07/24 11:36:38;;;;;;;;;;;;;;;22.49;100.00;100229.38;5159672;28;19928;-69
2023/07/24 11:39:10;;;;;;;;;;;;;;;22.53;100.00;100232.41;5176996;28;19914;-68
2023/07/24 11:41:41;;;;;;;;;;;;;;;22.58;100.00;100224.56;5170847;28;19943;-69
2023/07/24 11:44:16;;;;;;;;;;;;;;;22.59;100.00;100223.53;5172392;28;19953;-69
2023/07/24 11:46:47;;;;;;;;;;;;;;;22.63;100.00;100223.88;5179624;28;19965;-69